Time;durP1;ratioP1;P1;durP2;ratioP2;P2;SDS_P1;SDS_P2;PMS_P1;PMS_P2;Temp;Humidity;BMP_temperature;BMP_pressure;BME280_temperature;BME280_humidity;BME280_pressure;Samples;Min_cycle;Max_cycle;Signal;HPM_P1;HPM_P2
2023/07/30 05:39:06;;;;;;;;;;;;;;;;;;5512677;23;19930;-82
2023/07/30 05:41:32;;;;;;;;;;;;;;;;;;4935777;29;19919;-84
2023/07/30 05:43:57;;;;;;;;;;;;;;;;;;4930939;29;20281;-81
2023/07/30 05:46:22;;;;;;;;;;;;;;;;;;4935624;29;19914;-83
2023/07/30 05:48:48;;;;;;;;;;;;;;;;;;4945381;29;20276;-83
2023/07/30 05:51:13;;;;;;;;;;;;;;;;;;4938461;29;19915;-87
2023/07/30 05:53:38;;;;;;;;;;;;;;;;;;4938504;29;19914;-79
2023/07/30 05:56:04;;;;;;;;;;;;;;;;;;4936061;29;19992;-80
2023/07/30 05:58:29;;;;;;;;;;;;;;;;;;4919343;29;19950;-82
2023/07/30 06:00:54;;;;;;;;;;;;;;;;;;4919240;29;19954;-81
2023/07/30 06:03:19;;;;;;;;;;;;;;;;;;4919024;29;19926;-79
2023/07/30 06:05:45;;;;;;;;;;;;;;;;;;4919231;29;19915;-79
2023/07/30 06:08:10;;;;;;;;;;;;;;;;;;4919551;29;20258;-81
2023/07/30 06:10:40;;;;;;;;;;;;;;;;;;4919327;29;20367;-84
2023/07/30 06:13:05;;;;;;;;;;;;;;;;;;4904039;29;19922;-86
2023/07/30 06:15:34;;;;;;;;;;;;;;;;;;4940387;29;19915;-86
2023/07/30 06:18:01;;;;;;;;;;;;;;;;;;4941883;29;20366;-85
2023/07/30 09:30:24;;;;;;;;;;;;;;;;;;4974929;28;19922;-85
2023/07/30 09:32:53;;;;;;;;;;;;;;;;;;4978658;28;20284;-85
2023/07/30 09:35:19;;;;;;;;;;;;;;;;;;4980938;28;20276;-85
2023/07/30 09:37:45;;;;;;;;;;;;;;;;;;4979023;28;19929;-87
2023/07/30 09:40:14;;;;;;;;;;;;;;;;;;4980481;28;19921;-89
2023/07/30 09:42:43;;;;;;;;;;;;;;;;;;4980559;28;19921;-88
2023/07/30 09:45:16;;;;;;;;;;;;;;;;;;4988481;28;19914;-88
2023/07/30 09:47:46;;;;;;;;;;;;;;;;;;4983589;28;19978;-88
2023/07/30 09:50:11;;;;;;;;;;;;;;;;;;4977668;28;19914;-86
2023/07/30 09:52:36;;;;;;;;;;;;;;;;;;4977633;28;19917;-86
2023/07/30 09:55:03;;;;;;;;;;;;;;;;;;4978071;28;20001;-89
2023/07/30 09:57:28;;;;;;;;;;;;;;;;;;4978201;28;19969;-87
2023/07/30 09:59:54;;;;;;;;;;;;;;;;;;4959562;28;19913;-88
2023/07/30 10:02:19;;;;;;;;;;;;;;;;;;4959756;28;19914;-90
2023/07/30 10:04:47;;;;;;;;;;;;;;;;;;4960056;28;19925;-92
2023/07/30 10:07:16;;;;;;;;;;;;;;;;;;4959646;28;20469;-93
2023/07/30 10:09:44;;;;;;;;;;;;;;;;;;4959905;28;19953;-89
2023/07/30 10:12:13;;;;;;;;;;;;;;;;;;4977214;28;19917;-91
2023/07/30 10:14:39;;;;;;;;;;;;;;;;;;4959750;28;20012;-92
2023/07/30 10:17:05;;;;;;;;;;;;;;;;;;4976843;28;19949;-91
2023/07/30 10:19:31;;;;;;;;;;;;;;;;;;4977382;28;19914;-91
2023/07/30 10:22:19;;;;;;;;;;;;;;;;;;4959510;28;20276;-91
2023/07/30 10:24:55;;;;;;;;;;;;;;;;;;4959476;28;19917;-92
2023/07/30 10:27:23;;;;;;;;;;;;;;;;;;4976439;28;19918;-90
2023/07/30 10:29:48;;;;;;;;;;;;;;;;;;4977347;28;20389;-90
2023/07/30 10:32:14;;;;;;;;;;;;;;;;;;4977710;28;19965;-89
2023/07/30 10:34:46;;;;;;;;;;;;;;;;;;4958878;28;20387;-91
2023/07/30 10:37:17;;;;;;;;;;;;;;;;;;4976203;28;19910;-87
2023/07/30 10:39:43;;;;;;;;;;;;;;;;;;4976403;28;20060;-88
2023/07/30 10:42:08;;;;;;;;;;;;;;;;;;4976030;28;19949;-87
2023/07/30 10:44:34;;;;;;;;;;;;;;;;;;4975885;28;19918;-91
2023/07/30 10:47:00;;;;;;;;;;;;;;;;;;4975884;28;19910;-87
2023/07/30 10:49:25;;;;;;;;;;;;;;;;;;4976674;28;19925;-83
2023/07/30 10:51:55;;;;;;;;;;;;;;;;;;4976504;28;19914;-84
2023/07/30 10:54:21;;;;;;;;;;;;;;;;;;4976538;28;19933;-84
2023/07/30 10:56:47;;;;;;;;;;;;;;;;;;4976189;28;20001;-85
2023/07/30 10:59:13;;;;;;;;;;;;;;;;;;4976277;28;20364;-85
2023/07/30 11:01:39;;;;;;;;;;;;;;;;;;4975596;28;19914;-84
2023/07/30 11:04:15;;;;;;;;;;;;;;;;;;4975874;28;19941;-86
2023/07/30 11:06:44;;;;;;;;;;;;;;;;;;4975850;28;19914;-86
2023/07/30 11:09:18;;;;;;;;;;;;;;;;;;4975419;28;20369;-84
2023/07/30 11:11:43;;;;;;;;;;;;;;;;;;4974509;28;19921;-85
2023/07/30 11:14:14;;;;;;;;;;;;;;;;;;4975836;28;19914;-84
2023/07/30 11:16:46;;;;;;;;;;;;;;;;;;4975789;28;19956;-86
2023/07/30 11:19:14;;;;;;;;;;;;;;;;;;4975619;28;20376;-86
2023/07/30 11:21:44;;;;;;;;;;;;;;;;;;4975530;28;19921;-86
2023/07/30 11:24:09;;;;;;;;;;;;;;;;;;4958221;28;19914;-85
2023/07/30 11:26:34;;;;;;;;;;;;;;;;;;4975450;28;19941;-85
2023/07/30 11:29:00;;;;;;;;;;;;;;;;;;4975281;28;19914;-85
2023/07/30 11:31:27;;;;;;;;;;;;;;;;;;4975159;28;19940;-84
2023/07/30 11:33:52;;;;;;;;;;;;;;;;;;4975202;28;20009;-85
2023/07/30 11:36:19;;;;;;;;;;;;;;;;;;4975061;28;19945;-85
2023/07/30 11:38:45;;;;;;;;;;;;;;;;;;4975131;28;20394;-85
2023/07/30 11:41:10;;;;;;;;;;;;;;;;;;4975567;28;19914;-85
2023/07/30 11:43:40;;;;;;;;;;;;;;;;;;4975381;28;19921;-85
2023/07/30 11:46:09;;;;;;;;;;;;;;;;;;4975053;28;19924;-86
2023/07/30 11:48:35;;;;;;;;;;;;;;;;;;4975661;28;19968;-86
2023/07/30 11:51:00;;;;;;;;;;;;;;;;;;4976287;28;19921;-87
2023/07/30 11:53:44;;;;;;;;;;;;;;;;;;4975781;28;20324;-84
2023/07/30 11:56:17;;;;;;;;;;;;;;;;;;4975122;28;19921;-89
2023/07/30 11:58:42;;;;;;;;;;;;;;;;;;4975012;28;19914;-85
2023/07/30 12:01:07;;;;;;;;;;;;;;;;;;4974987;28;19921;-86
2023/07/30 12:03:33;;;;;;;;;;;;;;;;;;4974873;28;19918;-85
2023/07/30 12:06:04;;;;;;;;;;;;;;;;;;4975302;28;20049;-84
2023/07/30 12:08:29;;;;;;;;;;;;;;;;;;4974925;28;19914;-88
2023/07/30 12:10:56;;;;;;;;;;;;;;;;;;4974869;28;20343;-84
2023/07/30 12:13:21;;;;;;;;;;;;;;;;;;4974799;28;19914;-88
2023/07/30 12:15:53;;;;;;;;;;;;;;;;;;4975106;28;19920;-94
2023/07/30 12:18:19;;;;;;;;;;;;;;;;;;4957953;28;19918;-92
2023/07/30 12:20:44;;;;;;;;;;;;;;;;;;4958161;28;19913;-90
2023/07/30 12:23:09;;;;;;;;;;;;;;;;;;4959050;28;20384;-91
2023/07/30 12:25:35;;;;;;;;;;;;;;;;;;4961443;28;20276;-91
2023/07/30 12:28:00;;;;;;;;;;;;;;;;;;4961756;28;19925;-92
2023/07/30 12:30:27;;;;;;;;;;;;;;;;;;4978586;28;19969;-92
2023/07/30 12:32:52;;;;;;;;;;;;;;;;;;4961407;28;20000;-92
2023/07/30 12:35:18;;;;;;;;;;;;;;;;;;4978795;28;19952;-88
2023/07/30 12:37:43;;;;;;;;;;;;;;;;;;4978682;28;20005;-92
2023/07/30 12:40:09;;;;;;;;;;;;;;;;;;4978607;28;19921;-90
2023/07/30 12:42:34;;;;;;;;;;;;;;;;;;4978740;28;20370;-85
2023/07/30 12:44:59;;;;;;;;;;;;;;;;;;4978371;28;20336;-85
2023/07/30 12:47:24;;;;;;;;;;;;;;;;;;4978050;28;20013;-89
2023/07/30 12:49:50;;;;;;;;;;;;;;;;;;4978016;28;19918;-86
2023/07/30 12:52:15;;;;;;;;;;;;;;;;;;4978587;28;19984;-87
2023/07/30 12:54:40;;;;;;;;;;;;;;;;;;4978138;28;20353;-87
2023/07/30 12:57:06;;;;;;;;;;;;;;;;;;4977890;28;19970;-86
2023/07/30 12:59:31;;;;;;;;;;;;;;;;;;4978051;28;19949;-86
2023/07/30 13:01:57;;;;;;;;;;;;;;;;;;4977772;28;19914;-86
2023/07/30 13:04:27;;;;;;;;;;;;;;;;;;4977867;28;19981;-86
2023/07/30 13:06:52;;;;;;;;;;;;;;;;;;4977887;28;20415;-88
2023/07/30 13:09:18;;;;;;;;;;;;;;;;;;4960395;28;19914;-87
2023/07/30 13:11:43;;;;;;;;;;;;;;;;;;4978056;28;19914;-88
2023/07/30 13:14:08;;;;;;;;;;;;;;;;;;4977979;28;19914;-85
2023/07/30 13:16:34;;;;;;;;;;;;;;;;;;4977723;28;19921;-86
2023/07/30 13:18:59;;;;;;;;;;;;;;;;;;4977629;28;19921;-87
2023/07/30 13:21:24;;;;;;;;;;;;;;;;;;4977679;28;20368;-85
2023/07/30 13:23:50;;;;;;;;;;;;;;;;;;4977725;28;20296;-85
2023/07/30 13:26:16;;;;;;;;;;;;;;;;;;4977680;28;20357;-87
2023/07/30 13:28:42;;;;;;;;;;;;;;;;;;4977678;28;19914;-87
2023/07/30 13:31:07;;;;;;;;;;;;;;;;;;4977399;28;19918;-88
2023/07/30 13:33:33;;;;;;;;;;;;;;;;;;4959985;28;19921;-89
2023/07/30 13:35:58;;;;;;;;;;;;;;;;;;4976833;28;19909;-89
2023/07/30 13:38:26;;;;;;;;;;;;;;;;;;4977330;28;20364;-87
2023/07/30 13:40:51;;;;;;;;;;;;;;;;;;4960074;28;19910;-90
2023/07/30 13:43:17;;;;;;;;;;;;;;;;;;4959817;28;19920;-89
2023/07/30 13:45:42;;;;;;;;;;;;;;;;;;4977106;28;19939;-87
2023/07/30 13:48:09;;;;;;;;;;;;;;;;;;4977472;28;20357;-86
2023/07/30 13:50:34;;;;;;;;;;;;;;;;;;4977086;28;19921;-89
2023/07/30 13:52:59;;;;;;;;;;;;;;;;;;4976909;28;19914;-87
2023/07/30 13:55:25;;;;;;;;;;;;;;;;;;4977113;28;20373;-88
2023/07/30 13:57:50;;;;;;;;;;;;;;;;;;4976980;28;19940;-87
2023/07/30 14:00:16;;;;;;;;;;;;;;;;;;4977284;28;19930;-87
2023/07/30 14:02:41;;;;;;;;;;;;;;;;;;4977153;28;19918;-87
2023/07/30 14:05:07;;;;;;;;;;;;;;;;;;4977029;28;20324;-88
2023/07/30 14:07:32;;;;;;;;;;;;;;;;;;4976876;28;19936;-90
2023/07/30 14:09:57;;;;;;;;;;;;;;;;;;4959358;28;20372;-86
2023/07/30 14:12:23;;;;;;;;;;;;;;;;;;4976873;28;20360;-87
2023/07/30 14:14:48;;;;;;;;;;;;;;;;;;4977180;28;19918;-89
2023/07/30 14:17:13;;;;;;;;;;;;;;;;;;4976601;28;19961;-90
2023/07/30 14:19:39;;;;;;;;;;;;;;;;;;4959839;28;19917;-90
2023/07/30 14:22:04;;;;;;;;;;;;;;;;;;4976943;28;20489;-91
2023/07/30 14:24:30;;;;;;;;;;;;;;;;;;4976689;28;19909;-91
2023/07/30 14:26:55;;;;;;;;;;;;;;;;;;4959298;28;19953;-93
2023/07/30 14:29:21;;;;;;;;;;;;;;;;;;4959365;28;19961;-90
2023/07/30 14:31:46;;;;;;;;;;;;;;;;;;4976308;28;19918;-89
2023/07/30 14:34:11;;;;;;;;;;;;;;;;;;4959257;28;19918;-91
2023/07/30 14:36:37;;;;;;;;;;;;;;;;;;4959089;28;20015;-90
2023/07/30 14:39:02;;;;;;;;;;;;;;;;;;4959812;28;20468;-90
2023/07/30 14:41:27;;;;;;;;;;;;;;;;;;4976835;28;20361;-90
2023/07/30 14:43:52;;;;;;;;;;;;;;;;;;4959648;28;19914;-91
2023/07/30 14:46:18;;;;;;;;;;;;;;;;;;4959055;28;19914;-89
2023/07/30 14:48:43;;;;;;;;;;;;;;;;;;4976475;28;19914;-90
2023/07/30 14:51:09;;;;;;;;;;;;;;;;;;4976639;28;19997;-92
2023/07/30 14:53:34;;;;;;;;;;;;;;;;;;4976401;28;20357;-90
2023/07/30 14:56:00;;;;;;;;;;;;;;;;;;4976140;28;19914;-94
2023/07/30 14:58:25;;;;;;;;;;;;;;;;;;4975978;28;20445;-90
2023/07/30 15:00:51;;;;;;;;;;;;;;;;;;4976081;28;20396;-93
2023/07/30 15:03:16;;;;;;;;;;;;;;;;;;4975844;28;19914;-87
2023/07/30 15:05:42;;;;;;;;;;;;;;;;;;4975942;28;19914;-89
2023/07/30 15:08:07;;;;;;;;;;;;;;;;;;4975986;28;20017;-91
2023/07/30 15:10:33;;;;;;;;;;;;;;;;;;4975922;28;19914;-90
2023/07/30 15:12:58;;;;;;;;;;;;;;;;;;4958522;28;19961;-88
2023/07/30 15:15:23;;;;;;;;;;;;;;;;;;4976620;28;19921;-93
2023/07/30 15:17:49;;;;;;;;;;;;;;;;;;4976153;28;20357;-91
2023/07/30 15:20:14;;;;;;;;;;;;;;;;;;4958795;28;19975;-88
2023/07/30 15:22:40;;;;;;;;;;;;;;;;;;4975751;28;19945;-88
2023/07/30 15:25:06;;;;;;;;;;;;;;;;;;4976132;28;20280;-89
2023/07/30 15:27:31;;;;;;;;;;;;;;;;;;4958804;28;19914;-88
2023/07/30 15:29:56;;;;;;;;;;;;;;;;;;4975684;28;19914;-88
2023/07/30 15:32:22;;;;;;;;;;;;;;;;;;4976038;28;19926;-87
2023/07/30 15:34:47;;;;;;;;;;;;;;;;;;4975753;28;19923;-94
2023/07/30 15:37:13;;;;;;;;;;;;;;;;;;4976492;28;19914;-87
2023/07/30 15:39:38;;;;;;;;;;;;;;;;;;4976856;28;19921;-85
2023/07/30 15:42:03;;;;;;;;;;;;;;;;;;4977110;28;19914;-88
2023/07/30 15:44:29;;;;;;;;;;;;;;;;;;4977628;28;19921;-89
2023/07/30 15:46:54;;;;;;;;;;;;;;;;;;4981405;28;19922;-87
2023/07/30 15:49:20;;;;;;;;;;;;;;;;;;4980269;28;19914;-90
2023/07/30 15:51:46;;;;;;;;;;;;;;;;;;4977551;28;19918;-90
2023/07/30 15:54:12;;;;;;;;;;;;;;;;;;4975172;28;20285;-86
2023/07/30 15:56:37;;;;;;;;;;;;;;;;;;4975291;28;19914;-88
2023/07/30 15:59:03;;;;;;;;;;;;;;;;;;4977741;28;20325;-89
2023/07/30 16:01:28;;;;;;;;;;;;;;;;;;4979297;28;19925;-87
2023/07/30 16:03:53;;;;;;;;;;;;;;;;;;4980109;28;19914;-92
2023/07/30 16:06:21;;;;;;;;;;;;;;;;;;4980636;28;19914;-94
2023/07/30 16:08:47;;;;;;;;;;;;;;;;;;4980863;28;19914;-91
2023/07/30 16:11:12;;;;;;;;;;;;;;;;;;4963624;28;19921;-92
2023/07/30 16:13:37;;;;;;;;;;;;;;;;;;4981416;28;19910;-94
2023/07/30 16:16:09;;;;;;;;;;;;;;;;;;4962108;28;19923;-94
2023/07/30 16:18:35;;;;;;;;;;;;;;;;;;4979883;28;19910;-90
2023/07/30 16:21:01;;;;;;;;;;;;;;;;;;4978885;28;19914;-91
2023/07/30 16:23:26;;;;;;;;;;;;;;;;;;4978912;28;19953;-90
2023/07/30 16:25:52;;;;;;;;;;;;;;;;;;4961542;28;20007;-89
2023/07/30 16:28:17;;;;;;;;;;;;;;;;;;4961256;28;20369;-88
2023/07/30 16:30:42;;;;;;;;;;;;;;;;;;4978378;28;19936;-88
2023/07/30 16:33:09;;;;;;;;;;;;;;;;;;4961488;28;19914;-91
2023/07/30 16:35:36;;;;;;;;;;;;;;;;;;4978843;28;19968;-91
2023/07/30 16:38:03;;;;;;;;;;;;;;;;;;4978561;28;19969;-91
2023/07/30 16:40:29;;;;;;;;;;;;;;;;;;4961219;28;20384;-93
2023/07/30 16:42:54;;;;;;;;;;;;;;;;;;4978432;28;19921;-89
2023/07/30 16:45:20;;;;;;;;;;;;;;;;;;4961597;28;19984;-90
2023/07/30 16:47:46;;;;;;;;;;;;;;;;;;4978080;28;19918;-89
2023/07/30 16:50:11;;;;;;;;;;;;;;;;;;4978682;28;19914;-92
2023/07/30 16:52:36;;;;;;;;;;;;;;;;;;4978340;28;19937;-90
2023/07/30 16:55:02;;;;;;;;;;;;;;;;;;4961091;28;19964;-92
2023/07/30 16:57:29;;;;;;;;;;;;;;;;;;4983812;28;19914;-94
2023/07/30 16:59:54;;;;;;;;;;;;;;;;;;4984457;28;19922;-93
2023/07/30 17:02:19;;;;;;;;;;;;;;;;;;4993524;28;19905;-93
2023/07/30 17:04:47;;;;;;;;;;;;;;;;;;4980232;28;19941;-96
2023/07/30 17:07:12;;;;;;;;;;;;;;;;;;4980412;28;19921;-88
2023/07/30 17:09:37;;;;;;;;;;;;;;;;;;4976473;28;19914;-86
2023/07/30 17:12:03;;;;;;;;;;;;;;;;;;4960389;28;19921;-88
2023/07/30 17:14:31;;;;;;;;;;;;;;;;;;4978256;28;20349;-86
2023/07/30 17:16:56;;;;;;;;;;;;;;;;;;4977998;28;19914;-87
2023/07/30 17:19:22;;;;;;;;;;;;;;;;;;4961133;28;19937;-87
2023/07/30 17:21:47;;;;;;;;;;;;;;;;;;4978551;28;19914;-86
2023/07/30 17:24:13;;;;;;;;;;;;;;;;;;4961095;28;19961;-86
2023/07/30 17:26:38;;;;;;;;;;;;;;;;;;4977552;28;19943;-86
2023/07/30 17:29:04;;;;;;;;;;;;;;;;;;4977285;28;19921;-86
2023/07/30 17:31:29;;;;;;;;;;;;;;;;;;4977223;28;20013;-86
2023/07/30 17:33:54;;;;;;;;;;;;;;;;;;4977726;28;20012;-88
2023/07/30 17:36:20;;;;;;;;;;;;;;;;;;4981275;28;20008;-86
2023/07/30 17:38:45;;;;;;;;;;;;;;;;;;4977360;28;19925;-88
2023/07/30 17:41:10;;;;;;;;;;;;;;;;;;4959896;28;19914;-88
2023/07/30 17:43:38;;;;;;;;;;;;;;;;;;4959734;28;19969;-87
2023/07/30 17:46:03;;;;;;;;;;;;;;;;;;4976971;28;20397;-87
2023/07/30 17:48:29;;;;;;;;;;;;;;;;;;4976940;28;20008;-87
2023/07/30 17:50:54;;;;;;;;;;;;;;;;;;4977183;28;19914;-87
2023/07/30 17:53:19;;;;;;;;;;;;;;;;;;4978218;28;19914;-87
2023/07/30 17:55:45;;;;;;;;;;;;;;;;;;4977583;28;20394;-89
2023/07/30 17:58:10;;;;;;;;;;;;;;;;;;4959901;28;19914;-88
2023/07/30 18:00:40;;;;;;;;;;;;;;;;;;4959696;28;19929;-88
2023/07/30 18:03:07;;;;;;;;;;;;;;;;;;4959605;28;19918;-87
2023/07/30 18:05:32;;;;;;;;;;;;;;;;;;4976847;28;19914;-86
2023/07/30 18:07:58;;;;;;;;;;;;;;;;;;4976885;28;20004;-86
2023/07/30 18:10:23;;;;;;;;;;;;;;;;;;4976802;28;19914;-88
2023/07/30 18:12:49;;;;;;;;;;;;;;;;;;4976456;28;19961;-86
2023/07/30 18:15:14;;;;;;;;;;;;;;;;;;4976694;28;20284;-87
2023/07/30 18:17:39;;;;;;;;;;;;;;;;;;4976596;28;19921;-83
2023/07/30 18:20:05;;;;;;;;;;;;;;;;;;4977038;28;19924;-87
2023/07/30 18:22:30;;;;;;;;;;;;;;;;;;4958673;28;19914;-87
2023/07/30 18:24:56;;;;;;;;;;;;;;;;;;4976469;28;20016;-84
2023/07/30 18:27:21;;;;;;;;;;;;;;;;;;4976060;28;19956;-86
2023/07/30 18:29:47;;;;;;;;;;;;;;;;;;4976557;28;19925;-85
2023/07/30 18:32:12;;;;;;;;;;;;;;;;;;4975954;28;19918;-88
2023/07/30 18:34:37;;;;;;;;;;;;;;;;;;4958916;28;20296;-85
2023/07/30 18:37:03;;;;;;;;;;;;;;;;;;4976155;28;20333;-85
2023/07/30 18:39:29;;;;;;;;;;;;;;;;;;4976402;28;20027;-87
2023/07/30 18:41:54;;;;;;;;;;;;;;;;;;4976107;28;19914;-87
2023/07/30 18:44:20;;;;;;;;;;;;;;;;;;4976323;28;19957;-88
2023/07/30 18:46:45;;;;;;;;;;;;;;;;;;4975895;28;19986;-87
2023/07/30 18:49:10;;;;;;;;;;;;;;;;;;4958585;28;19914;-90
2023/07/30 18:51:36;;;;;;;;;;;;;;;;;;4959083;28;19961;-89
2023/07/30 18:54:01;;;;;;;;;;;;;;;;;;4958637;28;19920;-86
2023/07/30 18:56:26;;;;;;;;;;;;;;;;;;4975927;28;20250;-90
2023/07/30 18:58:52;;;;;;;;;;;;;;;;;;4958422;28;19921;-87
2023/07/30 19:01:17;;;;;;;;;;;;;;;;;;4958977;28;20353;-88
2023/07/30 19:03:42;;;;;;;;;;;;;;;;;;4958397;28;19913;-87
2023/07/30 19:06:08;;;;;;;;;;;;;;;;;;4975889;28;19918;-88
2023/07/30 19:08:33;;;;;;;;;;;;;;;;;;4958918;28;20012;-87
2023/07/30 19:10:58;;;;;;;;;;;;;;;;;;4976536;28;19914;-88
2023/07/30 19:13:24;;;;;;;;;;;;;;;;;;4976018;28;19917;-88
2023/07/30 19:15:50;;;;;;;;;;;;;;;;;;4975647;28;19914;-88
2023/07/30 19:18:15;;;;;;;;;;;;;;;;;;4958155;28;20387;-88
2023/07/30 19:20:40;;;;;;;;;;;;;;;;;;4975669;28;19921;-89
2023/07/30 19:23:06;;;;;;;;;;;;;;;;;;4958171;28;20009;-84
2023/07/30 19:25:31;;;;;;;;;;;;;;;;;;4975385;28;19914;-88
2023/07/30 19:27:56;;;;;;;;;;;;;;;;;;4958118;28;19918;-90
2023/07/30 19:30:24;;;;;;;;;;;;;;;;;;4975606;28;19961;-88
2023/07/30 19:32:49;;;;;;;;;;;;;;;;;;4975180;28;19914;-88
2023/07/30 19:35:14;;;;;;;;;;;;;;;;;;4975863;28;19972;-92
2023/07/30 19:37:40;;;;;;;;;;;;;;;;;;4975699;28;19937;-92
2023/07/30 19:40:06;;;;;;;;;;;;;;;;;;4958187;28;19925;-90
2023/07/30 19:42:31;;;;;;;;;;;;;;;;;;4975496;28;19918;-92
2023/07/30 19:44:57;;;;;;;;;;;;;;;;;;4958219;28;20373;-90
2023/07/30 19:47:23;;;;;;;;;;;;;;;;;;4958122;28;19914;-90
2023/07/30 19:49:49;;;;;;;;;;;;;;;;;;4958530;28;20392;-89
2023/07/30 19:52:14;;;;;;;;;;;;;;;;;;4958383;28;19914;-89
2023/07/30 19:54:40;;;;;;;;;;;;;;;;;;4975562;28;19921;-88
2023/07/30 19:57:05;;;;;;;;;;;;;;;;;;4976009;28;19918;-91
2023/07/30 19:59:30;;;;;;;;;;;;;;;;;;4958427;28;19914;-88
2023/07/30 20:01:56;;;;;;;;;;;;;;;;;;4975449;28;19953;-91
2023/07/30 20:04:22;;;;;;;;;;;;;;;;;;4975688;28;19914;-89
2023/07/30 20:06:50;;;;;;;;;;;;;;;;;;4958116;28;19914;-92
2023/07/30 20:09:15;;;;;;;;;;;;;;;;;;4958118;28;19918;-89
2023/07/30 20:11:41;;;;;;;;;;;;;;;;;;4975149;28;19921;-92
2023/07/30 20:14:06;;;;;;;;;;;;;;;;;;4975427;28;20395;-88
2023/07/30 20:16:32;;;;;;;;;;;;;;;;;;4958086;28;20266;-92
2023/07/30 20:18:57;;;;;;;;;;;;;;;;;;4975406;28;19914;-87
2023/07/30 20:21:22;;;;;;;;;;;;;;;;;;4975379;28;19914;-93
2023/07/30 20:23:48;;;;;;;;;;;;;;;;;;4958111;28;20005;-89
2023/07/30 20:26:15;;;;;;;;;;;;;;;;;;4975558;28;19914;-88
2023/07/30 20:28:40;;;;;;;;;;;;;;;;;;4958483;28;19914;-90
2023/07/30 20:31:06;;;;;;;;;;;;;;;;;;4975451;28;19922;-87
2023/07/30 20:33:33;;;;;;;;;;;;;;;;;;4975637;28;20328;-93
2023/07/30 20:35:58;;;;;;;;;;;;;;;;;;4975899;28;19917;-88
2023/07/30 20:38:23;;;;;;;;;;;;;;;;;;4975559;28;19914;-91
2023/07/30 20:40:49;;;;;;;;;;;;;;;;;;4975708;28;19932;-89
2023/07/30 20:43:15;;;;;;;;;;;;;;;;;;4976394;28;19914;-88
2023/07/30 20:45:40;;;;;;;;;;;;;;;;;;4964536;28;19921;-92
2023/07/30 20:48:05;;;;;;;;;;;;;;;;;;4980774;28;19925;-90
2023/07/30 20:50:31;;;;;;;;;;;;;;;;;;4978799;28;19914;-91
2023/07/30 20:52:56;;;;;;;;;;;;;;;;;;4978955;28;19909;-94
2023/07/30 20:55:21;;;;;;;;;;;;;;;;;;4961414;28;19917;-92
2023/07/30 20:57:47;;;;;;;;;;;;;;;;;;4978632;28;19914;-88
2023/07/30 21:00:12;;;;;;;;;;;;;;;;;;4978595;28;19910;-89
2023/07/30 21:02:37;;;;;;;;;;;;;;;;;;4978671;28;20254;-94
2023/07/30 21:05:03;;;;;;;;;;;;;;;;;;4978584;28;19913;-93
2023/07/30 21:07:29;;;;;;;;;;;;;;;;;;4978531;28;20328;-90
2023/07/30 21:09:54;;;;;;;;;;;;;;;;;;4960988;28;20013;-94
2023/07/30 21:12:20;;;;;;;;;;;;;;;;;;4961011;28;19957;-91
2023/07/30 21:14:46;;;;;;;;;;;;;;;;;;4978453;28;19918;-90
2023/07/30 21:17:11;;;;;;;;;;;;;;;;;;4978268;28;20261;-90
2023/07/30 21:19:36;;;;;;;;;;;;;;;;;;4978129;28;20018;-92
2023/07/30 21:22:02;;;;;;;;;;;;;;;;;;4978133;28;19914;-90
2023/07/30 21:24:27;;;;;;;;;;;;;;;;;;4944673;28;19921;-89
2023/07/30 21:26:52;;;;;;;;;;;;;;;;;;4978153;28;19921;-88
2023/07/30 21:29:18;;;;;;;;;;;;;;;;;;4978174;28;20369;-90
2023/07/30 21:31:43;;;;;;;;;;;;;;;;;;4960568;28;20281;-90
2023/07/30 21:34:08;;;;;;;;;;;;;;;;;;4977537;28;19914;-88
2023/07/30 21:36:34;;;;;;;;;;;;;;;;;;4977507;28;19914;-93
2023/07/30 21:39:00;;;;;;;;;;;;;;;;;;4977526;28;19914;-88
2023/07/30 21:41:25;;;;;;;;;;;;;;;;;;4960219;28;20336;-88
2023/07/30 21:43:50;;;;;;;;;;;;;;;;;;4977504;28;19917;-87
2023/07/30 21:46:15;;;;;;;;;;;;;;;;;;4977492;28;20325;-87
2023/07/30 21:48:41;;;;;;;;;;;;;;;;;;4978143;28;20316;-94
2023/07/30 21:51:08;;;;;;;;;;;;;;;;;;4960225;28;20436;-88
2023/07/30 21:53:34;;;;;;;;;;;;;;;;;;4978064;28;19914;-92
